createdAt,value
2022-12-03T00:00:15.350Z,67.30
2022-12-03T00:02:17.150Z,67.20
2022-12-03T00:04:18.896Z,67.20
2022-12-03T00:06:20.682Z,67.10
2022-12-03T00:08:22.326Z,67.10
2022-12-03T00:10:24.124Z,67.20
2022-12-03T00:12:25.956Z,67.20
2022-12-03T00:14:27.659Z,67.20
2022-12-03T00:16:29.526Z,67.20
2022-12-03T00:18:31.248Z,67.00
2022-12-03T00:20:32.999Z,67.00
2022-12-03T00:22:35.038Z,66.90
2022-12-03T00:24:36.782Z,67.00
2022-12-03T00:26:38.447Z,67.00
2022-12-03T00:28:40.096Z,67.10
2022-12-03T00:30:41.795Z,67.20
2022-12-03T00:32:43.555Z,67.10
2022-12-03T00:34:45.472Z,67.60
2022-12-03T00:36:47.215Z,67.00
2022-12-03T00:38:48.936Z,67.00
2022-12-03T00:40:50.654Z,67.00
2022-12-03T00:42:52.353Z,66.90
2022-12-03T00:44:54.558Z,66.70
2022-12-03T00:46:56.552Z,66.80
2022-12-03T00:48:58.277Z,66.80
2022-12-03T00:50:59.947Z,66.80
2022-12-03T00:53:01.619Z,66.80
2022-12-03T00:55:03.703Z,66.80
2022-12-03T00:57:05.392Z,66.90
2022-12-03T00:59:07.052Z,66.90
2022-12-03T01:01:08.739Z,66.80
2022-12-03T01:03:10.460Z,66.80
2022-12-03T01:05:12.185Z,66.90
2022-12-03T01:07:14.442Z,67.00
2022-12-03T01:09:16.202Z,67.00
2022-12-03T01:11:36.353Z,66.90
2022-12-03T01:13:38.016Z,66.90
2022-12-03T01:15:39.716Z,67.00
2022-12-03T01:17:41.588Z,67.20
2022-12-03T01:19:48.259Z,67.20
2022-12-03T01:21:51.322Z,67.10
2022-12-03T01:23:53.037Z,67.20
2022-12-03T01:25:54.686Z,67.20
2022-12-03T01:27:56.303Z,67.10
2022-12-03T01:29:57.991Z,67.00
2022-12-03T01:32:19.250Z,67.00
2022-12-03T01:34:36.913Z,67.00
2022-12-03T01:36:46.185Z,66.90
2022-12-03T01:38:48.847Z,67.10
2022-12-03T01:40:52.357Z,67.00
2022-12-03T01:42:54.935Z,67.10
2022-12-03T01:44:57.382Z,67.10
2022-12-03T01:47:01.275Z,67.10
2022-12-03T01:49:03.424Z,67.10
2022-12-03T01:51:05.474Z,67.20
2022-12-03T01:53:09.038Z,67.20
2022-12-03T01:55:13.648Z,67.10
2022-12-03T01:57:20.006Z,67.10
2022-12-03T01:59:23.086Z,67.10
2022-12-03T02:01:24.793Z,67.00
2022-12-03T02:03:26.546Z,67.20
2022-12-03T02:05:29.744Z,67.20
2022-12-03T02:07:33.059Z,67.00
2022-12-03T02:09:34.683Z,66.90
2022-12-03T02:11:38.739Z,66.90
2022-12-03T02:13:41.610Z,67.00
2022-12-03T02:15:43.331Z,67.00
2022-12-03T02:17:45.049Z,66.90
2022-12-03T02:19:46.839Z,66.90
2022-12-03T02:22:03.594Z,66.50
2022-12-03T02:24:15.088Z,66.50
2022-12-03T02:26:16.843Z,66.60
2022-12-03T02:28:18.571Z,66.70
2022-12-03T02:30:21.443Z,66.70
2022-12-03T02:32:23.498Z,66.70
2022-12-03T02:34:41.376Z,66.70
2022-12-03T02:36:43.105Z,66.70
2022-12-03T02:38:45.448Z,66.80
2022-12-03T02:40:49.095Z,66.90
2022-12-03T02:42:52.582Z,67.70
2022-12-03T02:44:54.715Z,66.80
2022-12-03T02:46:56.650Z,66.90
2022-12-03T02:48:58.840Z,66.90
2022-12-03T02:51:02.447Z,66.90
2022-12-03T02:53:05.822Z,66.80
2022-12-03T02:55:08.099Z,66.60
2022-12-03T02:57:09.880Z,66.60
2022-12-03T02:59:11.836Z,66.30
2022-12-03T03:01:15.358Z,66.20
2022-12-03T03:03:20.870Z,66.20
2022-12-03T03:05:23.730Z,66.00
2022-12-03T03:07:25.552Z,66.10
2022-12-03T03:09:27.267Z,66.20
2022-12-03T03:11:28.939Z,66.40
2022-12-03T03:13:32.262Z,66.40
2022-12-03T03:15:35.690Z,66.60
2022-12-03T03:17:37.759Z,66.60
2022-12-03T03:19:39.389Z,66.60
2022-12-03T03:21:41.191Z,66.50
2022-12-03T03:23:44.169Z,66.50
2022-12-03T03:26:06.077Z,66.50
2022-12-03T03:28:07.932Z,66.60
2022-12-03T03:30:11.686Z,66.70
2022-12-03T03:32:13.395Z,66.80
2022-12-03T03:34:16.023Z,66.80
2022-12-03T03:36:18.182Z,66.90
2022-12-03T03:38:20.832Z,67.40
2022-12-03T03:40:22.506Z,67.10
2022-12-03T03:42:24.396Z,67.20
2022-12-03T03:44:26.240Z,67.10
2022-12-03T03:46:28.683Z,67.10
2022-12-03T03:48:30.758Z,67.10
2022-12-03T03:50:32.682Z,67.00
2022-12-03T03:52:34.651Z,67.00
2022-12-03T03:54:36.586Z,67.00
2022-12-03T03:56:38.384Z,67.20
2022-12-03T03:58:40.266Z,67.00
2022-12-03T04:00:45.399Z,66.60
2022-12-03T04:02:47.093Z,66.60
2022-12-03T04:04:48.852Z,66.60
2022-12-03T04:06:50.471Z,66.70
2022-12-03T04:08:52.081Z,66.80
2022-12-03T04:11:12.564Z,66.90
2022-12-03T04:13:14.188Z,66.80
2022-12-03T04:15:15.803Z,67.00
2022-12-03T04:17:17.400Z,67.00
2022-12-03T04:19:19.053Z,67.10
2022-12-03T04:21:40.502Z,67.00
2022-12-03T04:23:42.162Z,67.00
2022-12-03T04:26:02.446Z,67.00
2022-12-03T04:28:22.580Z,66.80
2022-12-03T04:30:24.438Z,66.80
2022-12-03T04:32:44.751Z,66.60
2022-12-03T04:35:04.947Z,66.60
2022-12-03T04:37:06.675Z,66.40
2022-12-03T04:39:08.314Z,66.50
2022-12-03T04:41:09.957Z,66.50
2022-12-03T04:43:13.015Z,66.50
2022-12-03T04:45:14.657Z,66.60
2022-12-03T04:47:18.085Z,66.70
2022-12-03T04:49:19.743Z,66.70
2022-12-03T04:51:21.343Z,66.80
2022-12-03T04:53:22.944Z,66.60
2022-12-03T04:55:24.573Z,66.50
2022-12-03T04:57:26.160Z,66.50
2022-12-03T04:59:27.780Z,66.50
2022-12-03T05:01:29.491Z,66.40
2022-12-03T05:03:31.182Z,66.50
2022-12-03T05:05:32.806Z,66.60
2022-12-03T05:07:34.504Z,66.40
2022-12-03T05:09:36.250Z,66.20
2022-12-03T05:11:38.213Z,66.20
2022-12-03T05:13:39.824Z,66.10
2022-12-03T05:15:41.471Z,66.10
2022-12-03T05:17:43.095Z,66.10
2022-12-03T05:20:03.451Z,66.00
2022-12-03T05:22:05.071Z,66.00
2022-12-03T05:24:06.809Z,66.00
2022-12-03T05:26:08.475Z,66.10
2022-12-03T05:28:10.159Z,66.10
2022-12-03T05:30:11.937Z,66.10
2022-12-03T05:32:13.542Z,66.10
2022-12-03T05:34:15.180Z,66.00
2022-12-03T05:36:17.425Z,66.10
2022-12-03T05:38:19.080Z,65.90
2022-12-03T05:40:20.992Z,65.90
2022-12-03T05:42:41.240Z,65.90
2022-12-03T05:44:42.874Z,65.90
2022-12-03T05:46:44.544Z,66.00
2022-12-03T05:48:46.216Z,66.00
2022-12-03T05:50:47.875Z,66.00
2022-12-03T05:52:49.827Z,66.00
2022-12-03T05:54:51.582Z,66.00
2022-12-03T05:56:53.424Z,66.00
2022-12-03T05:58:55.087Z,66.10
2022-12-03T06:00:56.707Z,66.20
2022-12-03T06:02:58.544Z,66.20
2022-12-03T06:05:00.280Z,66.10
2022-12-03T06:07:01.878Z,66.10
2022-12-03T06:09:03.811Z,66.10
2022-12-03T06:11:05.571Z,66.00
2022-12-03T06:13:07.222Z,66.00
2022-12-03T06:15:10.279Z,66.20
2022-12-03T06:17:11.881Z,66.40
2022-12-03T06:19:13.522Z,66.50
2022-12-03T06:21:15.156Z,66.40
2022-12-03T06:23:16.775Z,66.20
2022-12-03T06:25:18.434Z,66.20
2022-12-03T06:27:20.110Z,66.20
2022-12-03T06:29:21.754Z,66.30
2022-12-03T06:31:23.417Z,66.40
2022-12-03T06:33:25.088Z,66.50
2022-12-03T06:35:26.735Z,66.70
2022-12-03T06:37:28.400Z,66.80
2022-12-03T06:39:30.046Z,66.90
2022-12-03T06:41:31.658Z,67.00
2022-12-03T06:43:33.424Z,67.00
2022-12-03T06:45:35.082Z,67.00
2022-12-03T06:47:36.696Z,67.10
2022-12-03T06:49:38.374Z,67.10
2022-12-03T06:51:40.580Z,67.30
2022-12-03T06:53:42.226Z,67.10
2022-12-03T06:55:43.914Z,67.20
2022-12-03T06:57:45.584Z,67.10
2022-12-03T06:59:47.227Z,67.10
2022-12-03T07:01:48.968Z,67.00
2022-12-03T07:03:50.676Z,67.00
2022-12-03T07:05:52.256Z,66.90
2022-12-03T07:07:55.291Z,66.80
2022-12-03T07:09:57.045Z,66.70
2022-12-03T07:11:58.674Z,66.70
2022-12-03T07:14:04.952Z,66.70
2022-12-03T07:16:07.497Z,67.40
2022-12-03T07:18:09.797Z,66.80
2022-12-03T07:20:11.610Z,66.80
2022-12-03T07:22:13.301Z,66.80
2022-12-03T07:24:14.970Z,66.70
2022-12-03T07:26:16.607Z,66.70
2022-12-03T07:28:18.231Z,66.70
2022-12-03T07:30:19.971Z,66.70
2022-12-03T07:32:21.631Z,66.80
2022-12-03T07:34:23.418Z,66.90
2022-12-03T07:36:25.114Z,66.90
2022-12-03T07:38:26.830Z,66.90
2022-12-03T07:40:28.477Z,66.90
2022-12-03T07:42:30.178Z,67.00
2022-12-03T07:44:31.949Z,67.20
2022-12-03T07:46:33.672Z,67.40
2022-12-03T07:48:35.306Z,67.40
2022-12-03T07:50:36.958Z,67.50
2022-12-03T07:52:38.613Z,67.50
2022-12-03T07:54:40.251Z,67.40
2022-12-03T07:56:42.476Z,67.30
2022-12-03T07:58:44.087Z,67.30
2022-12-03T08:00:45.845Z,67.30
2022-12-03T08:02:47.667Z,67.30
2022-12-03T08:04:49.361Z,67.40
2022-12-03T08:06:50.962Z,67.30
2022-12-03T08:08:52.606Z,67.40
2022-12-03T08:10:54.267Z,67.70
2022-12-03T08:12:58.027Z,67.90
2022-12-03T08:14:59.674Z,67.90
2022-12-03T08:17:01.371Z,67.90
2022-12-03T08:19:05.627Z,68.00
2022-12-03T08:21:10.211Z,68.00
2022-12-03T08:23:13.304Z,68.40
2022-12-03T08:25:17.653Z,68.60
2022-12-03T08:27:19.504Z,68.50
2022-12-03T08:29:21.251Z,68.30
2022-12-03T08:31:32.349Z,68.10
2022-12-03T08:33:35.917Z,68.20
2022-12-03T08:35:37.703Z,68.40
2022-12-03T08:37:39.847Z,68.40
2022-12-03T08:39:44.447Z,68.50
2022-12-03T08:42:13.890Z,68.60
2022-12-03T08:44:29.408Z,68.70
2022-12-03T08:46:31.061Z,68.50
2022-12-03T08:48:40.712Z,68.50
2022-12-03T08:50:46.447Z,68.40
2022-12-03T08:52:50.117Z,68.40
2022-12-03T08:54:53.504Z,68.30
2022-12-03T08:56:55.494Z,68.30
2022-12-03T08:59:15.005Z,68.30
2022-12-03T09:01:22.715Z,69.10
2022-12-03T09:03:24.671Z,68.20
2022-12-03T09:05:29.373Z,68.20
2022-12-03T09:07:31.103Z,68.20
2022-12-03T09:09:34.511Z,68.10
2022-12-03T09:11:36.551Z,68.20
2022-12-03T09:13:38.317Z,68.10
2022-12-03T09:15:39.974Z,68.20
2022-12-03T09:17:41.645Z,68.20
2022-12-03T09:19:46.265Z,68.00
2022-12-03T09:21:48.281Z,68.00
2022-12-03T09:23:50.169Z,67.90
2022-12-03T09:25:56.035Z,67.90
2022-12-03T09:27:58.190Z,68.00
2022-12-03T09:30:02.456Z,68.10
2022-12-03T09:32:05.245Z,68.00
2022-12-03T09:34:10.439Z,68.00
2022-12-03T09:36:18.827Z,67.90
2022-12-03T09:38:26.366Z,68.10
2022-12-03T09:40:29.656Z,68.20
2022-12-03T09:42:32.465Z,68.10
2022-12-03T09:44:36.529Z,68.20
2022-12-03T09:46:41.558Z,68.10
2022-12-03T09:48:44.130Z,68.10
2022-12-03T09:50:47.060Z,68.20
2022-12-03T09:52:57.535Z,68.20
2022-12-03T09:55:11.809Z,68.10
2022-12-03T09:57:17.626Z,68.00
2022-12-03T09:59:23.753Z,68.10
2022-12-03T10:01:30.092Z,68.00
2022-12-03T10:03:34.377Z,67.90
2022-12-03T10:05:55.429Z,67.90
2022-12-03T10:08:12.573Z,67.80
2022-12-03T10:10:21.883Z,67.90
2022-12-03T10:12:25.010Z,67.80
2022-12-03T10:14:27.071Z,67.70
2022-12-03T10:16:30.492Z,67.70
2022-12-03T10:18:39.818Z,67.70
2022-12-03T10:20:43.339Z,67.80
2022-12-03T10:22:45.204Z,67.80
2022-12-03T10:25:03.605Z,67.60
2022-12-03T10:27:23.327Z,67.70
2022-12-03T10:29:31.590Z,67.60
2022-12-03T10:31:35.664Z,67.60
2022-12-03T10:33:39.025Z,67.50
2022-12-03T10:35:43.914Z,67.70
2022-12-03T10:37:58.219Z,67.70
2022-12-03T10:40:01.101Z,67.60
2022-12-03T10:42:15.969Z,67.60
2022-12-03T10:44:17.732Z,67.60
2022-12-03T10:46:20.884Z,67.40
2022-12-03T10:48:27.453Z,67.30
2022-12-03T10:50:29.177Z,67.30
2022-12-03T10:52:30.831Z,68.10
2022-12-03T10:54:34.290Z,67.10
2022-12-03T10:56:35.967Z,67.10
2022-12-03T10:58:38.643Z,67.20
2022-12-03T11:00:40.293Z,67.10
2022-12-03T11:02:41.974Z,67.10
2022-12-03T11:04:43.669Z,67.10
2022-12-03T11:06:45.354Z,67.20
2022-12-03T11:08:54.627Z,67.30
2022-12-03T11:10:59.782Z,67.40
2022-12-03T11:13:30.573Z,67.40
2022-12-03T11:15:45.240Z,67.40
2022-12-03T11:17:51.557Z,67.20
2022-12-03T11:19:53.213Z,67.10
2022-12-03T11:22:05.104Z,67.10
2022-12-03T11:24:15.851Z,67.10
2022-12-03T11:26:37.570Z,66.80
2022-12-03T11:28:59.477Z,66.70
2022-12-03T11:31:02.640Z,66.50
2022-12-03T11:33:04.490Z,66.80
2022-12-03T11:35:13.213Z,67.10
2022-12-03T11:37:14.887Z,67.10
2022-12-03T11:39:36.496Z,67.20
2022-12-03T11:41:38.244Z,67.10
2022-12-03T11:43:51.864Z,67.20
2022-12-03T11:45:53.596Z,67.20
2022-12-03T11:47:58.446Z,67.20
2022-12-03T11:50:00.252Z,67.30
2022-12-03T11:52:11.807Z,67.30
2022-12-03T11:54:15.847Z,67.50
2022-12-03T11:56:23.660Z,67.40
2022-12-03T11:58:29.574Z,67.30
2022-12-03T12:00:31.794Z,67.40
2022-12-03T12:02:33.968Z,67.20
2022-12-03T12:04:37.951Z,67.20
2022-12-03T12:06:43.520Z,66.80
2022-12-03T12:08:47.919Z,66.80
2022-12-03T12:10:49.719Z,67.00
2022-12-03T12:12:55.161Z,67.00
2022-12-03T12:14:57.568Z,67.10
2022-12-03T12:17:03.164Z,66.90
2022-12-03T12:19:23.440Z,66.80
2022-12-03T12:21:43.410Z,66.90
2022-12-03T12:23:45.253Z,67.10
2022-12-03T12:25:52.453Z,66.80
2022-12-03T12:27:55.787Z,66.80
2022-12-03T12:29:58.702Z,66.80
2022-12-03T12:32:06.718Z,66.90
2022-12-03T12:34:11.735Z,66.90
2022-12-03T12:36:16.546Z,66.80
2022-12-03T12:38:20.038Z,66.70
2022-12-03T12:40:26.854Z,66.70
2022-12-03T12:42:33.079Z,66.70
2022-12-03T12:44:36.890Z,66.50
2022-12-03T12:46:47.594Z,66.60
2022-12-03T12:48:49.769Z,66.80
2022-12-03T12:53:50.047Z,67.00
2022-12-03T12:55:54.681Z,67.10
2022-12-03T12:58:00.021Z,67.00
2022-12-03T13:00:02.429Z,66.80
2022-12-03T13:02:24.142Z,66.80
2022-12-03T13:04:27.356Z,66.90
2022-12-03T13:06:30.725Z,67.00
2022-12-03T13:08:44.116Z,66.80
2022-12-03T13:10:45.864Z,66.80
2022-12-03T13:12:47.644Z,66.50
2022-12-03T13:14:51.967Z,66.50
2022-12-03T13:16:55.115Z,67.30
2022-12-03T13:18:57.639Z,66.40
2022-12-03T13:20:59.556Z,66.30
2022-12-03T13:23:05.805Z,66.40
2022-12-03T13:25:50.509Z,66.30
2022-12-03T13:27:47.807Z,66.40
2022-12-03T13:30:09.773Z,66.30
2022-12-03T13:32:13.827Z,66.30
2022-12-03T13:34:31.240Z,66.30
2022-12-03T13:36:38.916Z,66.40
2022-12-03T13:38:40.594Z,66.10
2022-12-03T13:40:42.556Z,66.20
2022-12-03T13:42:48.205Z,66.10
2022-12-03T13:44:50.016Z,65.90
2022-12-03T13:46:51.782Z,65.90
2022-12-03T13:48:57.377Z,66.10
2022-12-03T13:51:11.126Z,66.30
2022-12-03T13:53:12.801Z,66.20
2022-12-03T13:55:22.618Z,66.00
2022-12-03T13:57:24.408Z,66.00
2022-12-03T13:59:26.565Z,65.70
2022-12-03T14:01:28.353Z,66.50
2022-12-03T14:03:30.135Z,66.00
2022-12-03T14:05:31.926Z,66.10
2022-12-03T14:07:33.643Z,66.10
2022-12-03T14:09:35.358Z,65.60
2022-12-03T14:11:55.601Z,65.80
2022-12-03T14:13:57.356Z,65.50
2022-12-03T14:15:59.185Z,65.50
2022-12-03T14:18:00.948Z,65.70
2022-12-03T14:20:03.835Z,66.00
2022-12-03T14:22:07.949Z,66.80
2022-12-03T14:24:09.727Z,65.80
2022-12-03T14:26:11.509Z,65.60
2022-12-03T14:28:13.255Z,65.70
2022-12-03T14:30:15.101Z,65.80
2022-12-03T14:32:17.159Z,66.00
2022-12-03T14:34:18.904Z,65.80
2022-12-03T14:36:20.829Z,65.80
2022-12-03T14:38:22.597Z,66.10
2022-12-03T14:40:24.333Z,66.00
2022-12-03T14:42:26.097Z,65.80
2022-12-03T14:44:27.749Z,65.70
2022-12-03T14:46:31.347Z,65.80
2022-12-03T14:48:32.980Z,65.80
2022-12-03T14:50:34.631Z,65.80
2022-12-03T14:52:36.488Z,66.10
2022-12-03T14:54:39.180Z,66.10
2022-12-03T14:56:40.860Z,66.00
2022-12-03T14:58:42.672Z,66.20
2022-12-03T15:00:44.438Z,66.00
2022-12-03T15:02:46.181Z,66.10
2022-12-03T15:04:47.982Z,66.10
2022-12-03T15:06:49.746Z,66.10
2022-12-03T15:08:51.421Z,66.20
2022-12-03T15:10:53.093Z,67.00
2022-12-03T15:12:54.767Z,66.30
2022-12-03T15:14:56.580Z,66.00
2022-12-03T15:16:58.474Z,66.00
2022-12-03T15:19:00.493Z,66.00
2022-12-03T15:21:03.266Z,66.00
2022-12-03T15:23:07.851Z,66.00
2022-12-03T15:25:12.935Z,66.90
2022-12-03T15:27:14.648Z,66.10
2022-12-03T15:29:16.406Z,66.10
2022-12-03T15:31:18.210Z,66.00
2022-12-03T15:33:19.953Z,66.00
2022-12-03T15:35:21.621Z,66.10
2022-12-03T15:37:27.446Z,66.20
2022-12-03T15:39:29.614Z,66.10
2022-12-03T15:41:31.492Z,66.10
2022-12-03T15:43:33.166Z,66.20
2022-12-03T15:45:34.939Z,66.20
2022-12-03T15:47:36.618Z,66.30
2022-12-03T15:49:38.315Z,66.20
2022-12-03T15:51:40.097Z,66.10
2022-12-03T15:53:41.933Z,66.20
2022-12-03T15:55:43.665Z,66.10
2022-12-03T15:57:45.459Z,66.20
2022-12-03T15:59:47.163Z,66.20
2022-12-03T16:01:48.869Z,66.20
2022-12-03T16:03:50.692Z,66.20
2022-12-03T16:05:52.401Z,66.20
2022-12-03T16:07:54.188Z,66.20
2022-12-03T16:09:57.061Z,66.00
2022-12-03T16:11:58.928Z,66.00
2022-12-03T16:14:00.608Z,66.00
2022-12-03T16:16:02.455Z,66.00
2022-12-03T16:18:04.251Z,66.00
2022-12-03T16:20:06.799Z,66.00
2022-12-03T16:22:08.664Z,66.00
2022-12-03T16:24:10.501Z,66.10
2022-12-03T16:26:12.282Z,66.20
2022-12-03T16:28:14.046Z,65.80
2022-12-03T16:30:15.956Z,65.80
2022-12-03T16:32:17.720Z,66.00
2022-12-03T16:34:19.622Z,65.70
2022-12-03T16:36:22.136Z,65.20
2022-12-03T16:38:25.611Z,65.50
2022-12-03T16:40:27.377Z,65.70
2022-12-03T16:42:31.337Z,66.00
2022-12-03T16:44:43.728Z,66.00
2022-12-03T16:46:45.980Z,66.00
2022-12-03T16:48:49.036Z,66.20
2022-12-03T16:50:50.746Z,66.30
2022-12-03T16:52:52.956Z,66.20
2022-12-03T16:54:54.640Z,65.90
2022-12-03T16:56:56.416Z,65.90
2022-12-03T16:58:58.068Z,65.80
2022-12-03T17:00:59.798Z,65.80
2022-12-03T17:03:01.601Z,65.90
2022-12-03T17:05:03.545Z,65.80
2022-12-03T17:07:05.280Z,65.80
2022-12-03T17:09:06.993Z,65.70
2022-12-03T17:11:08.827Z,65.80
2022-12-03T17:13:11.054Z,65.90
2022-12-03T17:15:12.932Z,66.00
2022-12-03T17:17:25.419Z,65.90
2022-12-03T17:19:30.184Z,65.90
2022-12-03T17:21:34.830Z,65.90
2022-12-03T17:23:36.874Z,65.90
2022-12-03T17:25:38.570Z,65.70
2022-12-03T17:28:01.264Z,65.70
2022-12-03T17:30:03.658Z,65.70
2022-12-03T17:32:05.561Z,65.70
2022-12-03T17:34:07.268Z,65.40
2022-12-03T17:36:09.105Z,65.40
2022-12-03T17:38:11.169Z,65.60
2022-12-03T17:40:13.810Z,65.70
2022-12-03T17:42:15.438Z,65.40
2022-12-03T17:44:21.021Z,65.30
2022-12-03T17:46:23.230Z,65.50
2022-12-03T17:48:25.128Z,65.70
2022-12-03T17:50:26.848Z,65.70
2022-12-03T17:52:28.577Z,65.70
2022-12-03T17:54:55.164Z,66.40
2022-12-03T17:56:52.498Z,65.70
2022-12-03T17:58:54.162Z,66.20
2022-12-03T18:01:00.461Z,66.20
2022-12-03T18:03:04.014Z,66.10
2022-12-03T18:05:05.797Z,66.00
2022-12-03T18:07:07.494Z,65.80
2022-12-03T18:09:09.367Z,65.40
2022-12-03T18:11:11.072Z,65.70
2022-12-03T18:13:12.796Z,65.70
2022-12-03T18:15:14.547Z,65.60
2022-12-03T18:17:16.266Z,65.70
2022-12-03T18:19:17.948Z,65.80
2022-12-03T18:21:19.866Z,65.80
2022-12-03T18:23:21.544Z,65.90
2022-12-03T18:25:23.256Z,65.80
2022-12-03T18:27:25.032Z,65.90
2022-12-03T18:29:26.789Z,65.80
2022-12-03T18:31:28.525Z,65.90
2022-12-03T18:33:30.225Z,66.10
2022-12-03T18:35:32.001Z,66.10
2022-12-03T18:37:33.899Z,66.20
2022-12-03T18:39:36.535Z,66.20
2022-12-03T18:41:38.235Z,66.40
2022-12-03T18:43:41.083Z,66.40
2022-12-03T18:45:42.959Z,66.50
2022-12-03T18:47:44.955Z,66.30
2022-12-03T18:49:46.658Z,65.90
2022-12-03T18:51:48.657Z,65.80
2022-12-03T18:53:51.536Z,65.90
2022-12-03T18:55:53.271Z,65.90
2022-12-03T18:57:54.955Z,65.70
2022-12-03T18:59:56.873Z,65.70
2022-12-03T19:01:58.870Z,65.60
2022-12-03T19:04:00.657Z,65.60
2022-12-03T19:06:02.358Z,65.50
2022-12-03T19:08:04.575Z,65.80
2022-12-03T19:10:06.783Z,66.00
2022-12-03T19:12:14.279Z,66.00
2022-12-03T19:14:16.431Z,65.90
2022-12-03T19:16:18.276Z,65.90
2022-12-03T19:18:20.042Z,65.90
2022-12-03T19:20:21.727Z,65.80
2022-12-03T19:22:23.805Z,65.80
2022-12-03T19:24:25.813Z,65.70
2022-12-03T19:26:27.749Z,65.60
2022-12-03T19:28:30.619Z,65.80
2022-12-03T19:30:32.376Z,66.00
2022-12-03T19:32:34.432Z,65.80
2022-12-03T19:34:36.211Z,65.50
2022-12-03T19:36:37.873Z,65.70
2022-12-03T19:38:39.681Z,65.50
2022-12-03T19:40:41.413Z,65.70
2022-12-03T19:42:43.088Z,65.70
2022-12-03T19:44:44.844Z,65.80
2022-12-03T19:46:48.824Z,65.80
2022-12-03T19:48:50.598Z,65.70
2022-12-03T19:51:13.288Z,65.70
2022-12-03T19:53:14.738Z,65.70
2022-12-03T19:55:19.487Z,65.60
2022-12-03T19:57:23.705Z,65.70
2022-12-03T19:59:25.781Z,65.80
2022-12-03T20:01:30.691Z,65.90
2022-12-03T20:03:32.517Z,65.90
2022-12-03T20:05:38.312Z,65.90
2022-12-03T20:07:40.012Z,65.90
2022-12-03T20:09:41.863Z,65.90
2022-12-03T20:11:44.567Z,65.80
2022-12-03T20:13:47.288Z,65.60
2022-12-03T20:15:48.973Z,65.70
2022-12-03T20:17:50.630Z,65.80
2022-12-03T20:19:52.544Z,65.50
2022-12-03T20:21:59.052Z,65.50
2022-12-03T20:24:04.489Z,65.40
2022-12-03T20:26:10.324Z,65.50
2022-12-03T20:28:12.084Z,65.80
2022-12-03T20:30:13.859Z,65.80
2022-12-03T20:32:15.797Z,65.80
2022-12-03T20:34:17.727Z,65.80
2022-12-03T20:36:20.917Z,66.00
2022-12-03T20:38:23.652Z,65.90
2022-12-03T20:40:30.892Z,65.90
2022-12-03T20:42:32.655Z,65.80
2022-12-03T20:44:34.399Z,65.70
2022-12-03T20:46:36.353Z,65.50
2022-12-03T20:48:38.804Z,65.50
2022-12-03T20:50:40.894Z,65.50
2022-12-03T20:52:57.678Z,65.60
2022-12-03T20:55:04.567Z,65.80
2022-12-03T20:57:06.403Z,65.60
2022-12-03T20:59:10.354Z,65.50
2022-12-03T21:01:15.933Z,65.20
2022-12-03T21:03:18.145Z,66.00
2022-12-03T21:05:20.106Z,65.40
2022-12-03T21:07:23.959Z,65.50
2022-12-03T21:09:25.800Z,65.50
2022-12-03T21:11:29.787Z,65.50
2022-12-03T21:13:32.590Z,65.50
2022-12-03T21:15:34.529Z,65.70
2022-12-03T21:17:36.332Z,65.50
2022-12-03T21:19:38.207Z,65.30
2022-12-03T21:21:39.994Z,65.40
2022-12-03T21:23:44.696Z,65.60
2022-12-03T21:25:46.504Z,65.70
2022-12-03T21:27:48.253Z,65.70
2022-12-03T21:29:50.109Z,65.70
2022-12-03T21:31:51.933Z,65.70
2022-12-03T21:33:54.373Z,65.70
2022-12-03T21:35:56.689Z,65.60
2022-12-03T21:37:58.456Z,65.70
2022-12-03T21:40:00.271Z,65.70
2022-12-03T21:42:18.729Z,65.90
2022-12-03T21:44:23.854Z,65.90
2022-12-03T21:47:10.666Z,65.80
2022-12-03T21:48:49.700Z,65.70
2022-12-03T21:51:01.862Z,65.50
2022-12-03T21:53:03.579Z,65.30
2022-12-03T21:55:06.271Z,65.50
2022-12-03T21:57:08.091Z,65.40
2022-12-03T21:59:09.910Z,65.50
2022-12-03T22:01:16.681Z,65.50
2022-12-03T22:03:18.456Z,65.10
2022-12-03T22:05:20.186Z,65.10
2022-12-03T22:07:21.941Z,64.50
2022-12-03T22:09:26.684Z,64.80
2022-12-03T22:11:28.789Z,64.90
2022-12-03T22:13:30.492Z,64.90
2022-12-03T22:15:32.351Z,65.10
2022-12-03T22:17:35.530Z,65.10
2022-12-03T22:19:37.237Z,65.20
2022-12-03T22:21:39.001Z,65.10
2022-12-03T22:23:40.937Z,65.20
2022-12-03T22:25:42.629Z,65.20
2022-12-03T22:27:44.375Z,64.80
2022-12-03T22:29:46.200Z,65.00
2022-12-03T22:31:47.997Z,65.10
2022-12-03T22:33:49.906Z,65.20
2022-12-03T22:35:58.661Z,65.10
2022-12-03T22:38:00.342Z,65.10
2022-12-03T22:40:02.167Z,65.10
2022-12-03T22:42:03.955Z,65.10
2022-12-03T22:44:05.735Z,65.20
2022-12-03T22:46:10.445Z,65.40
2022-12-03T22:48:12.546Z,65.50
2022-12-03T22:50:14.232Z,65.60
2022-12-03T22:52:16.031Z,65.70
2022-12-03T22:54:23.554Z,65.70
2022-12-03T22:56:26.427Z,65.60
2022-12-03T22:58:28.444Z,65.50
2022-12-03T23:00:31.973Z,65.10
2022-12-03T23:02:33.786Z,65.20
2022-12-03T23:04:35.483Z,65.10
2022-12-03T23:06:37.450Z,65.30
2022-12-03T23:08:39.240Z,65.40
2022-12-03T23:10:42.266Z,65.40
2022-12-03T23:12:43.997Z,65.40
2022-12-03T23:14:45.655Z,65.50
2022-12-03T23:16:47.427Z,65.50
2022-12-03T23:18:49.355Z,65.60
2022-12-03T23:20:52.310Z,65.50
2022-12-03T23:22:55.127Z,65.50
2022-12-03T23:24:56.876Z,65.40
2022-12-03T23:26:59.695Z,65.50
2022-12-03T23:29:02.581Z,65.50
2022-12-03T23:31:05.204Z,65.40
2022-12-03T23:33:07.056Z,65.50
2022-12-03T23:35:09.101Z,65.50
2022-12-03T23:37:10.795Z,65.30
2022-12-03T23:39:12.457Z,65.10
2022-12-03T23:41:15.476Z,65.20
2022-12-03T23:43:17.197Z,66.10
2022-12-03T23:45:18.915Z,65.20
2022-12-03T23:47:20.743Z,65.20
2022-12-03T23:49:22.410Z,65.20
2022-12-03T23:51:24.632Z,65.20
2022-12-03T23:53:26.317Z,65.20
2022-12-03T23:55:27.984Z,65.40
2022-12-03T23:57:29.683Z,65.50
2022-12-03T23:59:31.343Z,65.50
